Terminal Aerodrome Forecast
Issued by NWS San Angelo, TX

Home | Current Version | Previous Version | Text Only | Print | Product List | Glossary On
Versions: 1 2 3 4 5 6 7 8 9 10 11 12 13 14 15 16 17 18
000
FTUS44 KSJT 202325
TAFABI
TAF
KABI 202325Z 2100/2124 19013KT P6SM SKC
     FM211200 18015G22KT P6SM OVC008
     FM211500 21016G22KT P6SM BKN012
     FM211600 22020G27KT P6SM SCT015
     FM211800 24024G35KT P6SM SKC=

USA.gov is the U.S. government's official web portal to all federal, state and local government web resources and services.